createdAt,value
2018-03-26T00:00:31.653Z,69.00
2018-03-26T00:03:04.213Z,69.50
2018-03-26T00:05:37.814Z,69.30
2018-03-26T00:08:10.485Z,69.30
2018-03-26T00:10:43.154Z,69.70
2018-03-26T00:13:15.728Z,69.50
2018-03-26T00:15:48.245Z,69.60
2018-03-26T00:18:20.824Z,69.20
2018-03-26T00:20:53.450Z,69.10
2018-03-26T00:23:26.719Z,69.70
2018-03-26T00:25:59.378Z,70.00
2018-03-26T00:28:32.316Z,69.90
2018-03-26T00:31:04.950Z,70.00
2018-03-26T00:33:37.780Z,70.20
2018-03-26T00:36:10.865Z,69.90
2018-03-26T00:38:43.397Z,70.10
2018-03-26T00:41:16.052Z,70.30
2018-03-26T00:43:49.828Z,70.10
2018-03-26T00:46:22.358Z,70.10
2018-03-26T00:48:55.186Z,70.00
2018-03-26T00:51:28.382Z,70.80
2018-03-26T00:54:01.305Z,70.70
2018-03-26T00:56:33.880Z,70.70
2018-03-26T00:59:07.177Z,70.60
2018-03-26T01:01:40.472Z,70.70
2018-03-26T01:04:13.002Z,71.00
2018-03-26T01:06:45.827Z,70.80
2018-03-26T01:09:18.787Z,70.70
2018-03-26T01:11:51.488Z,70.80
2018-03-26T01:14:24.232Z,71.00
2018-03-26T01:16:57.015Z,71.10
2018-03-26T01:19:30.203Z,71.30
2018-03-26T01:22:03.223Z,71.60
2018-03-26T01:24:35.873Z,71.60
2018-03-26T01:27:08.408Z,71.00
2018-03-26T01:29:41.334Z,71.20
2018-03-26T01:32:14.639Z,71.00
2018-03-26T01:34:48.173Z,71.20
2018-03-26T01:37:20.912Z,71.10
2018-03-26T01:39:53.494Z,71.20
2018-03-26T01:42:25.988Z,71.30
2018-03-26T01:44:59.355Z,71.60
2018-03-26T01:47:32.163Z,71.50
2018-03-26T01:50:04.818Z,71.30
2018-03-26T01:52:37.410Z,71.50
2018-03-26T01:55:10.077Z,71.80
2018-03-26T01:57:42.782Z,71.70
2018-03-26T02:00:15.417Z,71.60
2018-03-26T02:02:48.224Z,71.60
2018-03-26T02:05:21.260Z,71.60
2018-03-26T02:07:54.048Z,71.60
2018-03-26T02:10:26.593Z,71.00
2018-03-26T02:12:59.399Z,71.30
2018-03-26T02:15:32.328Z,71.10
2018-03-26T02:18:05.654Z,71.80
2018-03-26T02:20:38.550Z,71.70
2018-03-26T02:23:11.213Z,71.80
2018-03-26T02:25:43.955Z,71.90
2018-03-26T02:28:16.545Z,71.70
2018-03-26T02:30:49.344Z,71.60
2018-03-26T02:33:21.779Z,71.80
2018-03-26T02:35:54.483Z,71.60
2018-03-26T02:38:27.160Z,72.20
2018-03-26T02:41:00.044Z,71.90
2018-03-26T02:43:33.260Z,72.40
2018-03-26T02:46:06.426Z,72.30
2018-03-26T02:48:39.171Z,72.40
2018-03-26T02:51:12.136Z,72.70
2018-03-26T02:53:46.199Z,72.80
2018-03-26T02:56:19.092Z,72.40
2018-03-26T02:58:52.795Z,72.50
2018-03-26T03:01:26.126Z,72.40
2018-03-26T03:03:58.870Z,72.30
2018-03-26T03:06:32.576Z,72.10
2018-03-26T03:09:05.933Z,72.20
2018-03-26T03:11:38.751Z,72.20
2018-03-26T03:14:11.314Z,72.20
2018-03-26T03:16:44.567Z,72.00
2018-03-26T03:19:17.179Z,71.90
2018-03-26T03:21:50.190Z,71.60
2018-03-26T03:24:23.660Z,71.60
2018-03-26T03:26:56.438Z,71.90
2018-03-26T03:29:29.553Z,72.10
2018-03-26T03:32:02.355Z,72.50
2018-03-26T03:34:35.326Z,72.70
2018-03-26T03:37:08.160Z,72.90
2018-03-26T03:39:42.090Z,72.50
2018-03-26T03:42:14.899Z,72.50
2018-03-26T03:44:47.696Z,72.70
2018-03-26T03:47:20.360Z,72.70
2018-03-26T03:49:53.360Z,72.50
2018-03-26T03:52:26.601Z,72.90
2018-03-26T03:55:00.036Z,72.80
2018-03-26T03:57:32.865Z,72.70
2018-03-26T04:00:05.524Z,72.80
2018-03-26T04:02:38.283Z,72.90
2018-03-26T04:05:11.713Z,73.40
2018-03-26T04:07:44.398Z,72.70
2018-03-26T04:10:17.353Z,73.00
2018-03-26T04:12:50.091Z,73.00
2018-03-26T04:15:23.110Z,73.00
2018-03-26T04:17:55.575Z,73.10
2018-03-26T04:20:28.899Z,73.20
2018-03-26T04:23:01.450Z,73.20
2018-03-26T04:25:33.873Z,72.80
2018-03-26T04:28:07.140Z,71.90
2018-03-26T04:30:39.880Z,71.90
2018-03-26T04:33:12.503Z,72.00
2018-03-26T04:35:45.141Z,71.70
2018-03-26T04:38:17.480Z,71.70
2018-03-26T04:40:50.747Z,71.40
2018-03-26T04:43:23.061Z,71.30
2018-03-26T04:45:55.599Z,70.90
2018-03-26T04:48:28.179Z,71.00
2018-03-26T04:51:01.359Z,70.60
2018-03-26T04:53:34.473Z,70.90
2018-03-26T04:56:07.736Z,71.30
2018-03-26T04:58:40.300Z,71.30
2018-03-26T05:01:13.823Z,70.90
2018-03-26T05:03:46.589Z,70.90
2018-03-26T05:06:19.149Z,71.00
2018-03-26T05:08:51.435Z,70.70
2018-03-26T05:11:24.017Z,70.90
2018-03-26T05:13:56.479Z,70.80
2018-03-26T05:16:29.633Z,71.40
2018-03-26T05:19:01.984Z,71.40
2018-03-26T05:21:35.549Z,71.20
2018-03-26T05:24:08.235Z,71.20
2018-03-26T05:26:40.924Z,71.40
2018-03-26T05:29:13.318Z,71.30
2018-03-26T05:31:45.664Z,71.20
2018-03-26T05:34:18.065Z,71.20
2018-03-26T05:36:50.696Z,71.70
2018-03-26T05:39:24.023Z,71.40
2018-03-26T05:41:57.622Z,71.40
2018-03-26T05:44:30.021Z,71.20
2018-03-26T05:47:02.523Z,71.40
2018-03-26T05:49:34.959Z,71.60
2018-03-26T05:52:07.518Z,71.80
2018-03-26T05:54:39.860Z,72.10
2018-03-26T05:57:12.248Z,72.40
2018-03-26T05:59:44.793Z,72.20
2018-03-26T06:02:17.365Z,71.80
2018-03-26T06:04:49.985Z,71.80
2018-03-26T06:07:22.353Z,72.20
2018-03-26T06:09:56.360Z,71.70
2018-03-26T06:12:28.783Z,71.70
2018-03-26T06:15:01.334Z,71.70
2018-03-26T06:17:34.589Z,71.50
2018-03-26T06:20:07.048Z,71.50
2018-03-26T06:22:39.418Z,71.10
2018-03-26T06:25:12.129Z,71.10
2018-03-26T06:27:45.003Z,71.30
2018-03-26T06:30:18.419Z,70.80
2018-03-26T06:32:51.583Z,70.60
2018-03-26T06:35:24.084Z,70.60
2018-03-26T06:37:57.419Z,70.70
2018-03-26T06:40:30.711Z,70.70
2018-03-26T06:43:10.934Z,71.30
2018-03-26T06:45:43.305Z,70.60
2018-03-26T06:48:16.492Z,70.60
2018-03-26T06:50:49.650Z,70.30
2018-03-26T06:53:21.989Z,70.20
2018-03-26T06:55:54.671Z,69.90
2018-03-26T06:58:27.455Z,69.90
2018-03-26T07:01:00.729Z,70.00
2018-03-26T07:03:33.082Z,70.00
2018-03-26T07:06:06.464Z,70.50
2018-03-26T07:08:39.173Z,70.50
2018-03-26T07:13:51.103Z,70.40
2018-03-26T07:16:23.749Z,70.70
2018-03-26T07:18:56.446Z,70.50
2018-03-26T07:21:28.904Z,70.30
2018-03-26T07:24:01.186Z,70.70
2018-03-26T07:26:34.683Z,70.30
2018-03-26T07:29:07.184Z,70.30
2018-03-26T07:31:40.395Z,71.00
2018-03-26T07:34:12.824Z,71.00
2018-03-26T07:36:45.464Z,70.90
2018-03-26T07:39:18.003Z,71.00
2018-03-26T07:41:50.507Z,71.60
2018-03-26T07:44:23.064Z,72.00
2018-03-26T07:46:55.380Z,71.90
2018-03-26T07:49:28.954Z,71.20
2018-03-26T07:52:02.100Z,70.40
2018-03-26T07:54:35.225Z,70.00
2018-03-26T07:57:08.346Z,69.90
2018-03-26T07:59:40.769Z,69.90
2018-03-26T08:02:13.920Z,69.50
2018-03-26T08:04:46.303Z,69.50
2018-03-26T08:07:18.831Z,68.70
2018-03-26T08:09:51.384Z,68.30
2018-03-26T08:12:25.104Z,68.70
2018-03-26T08:14:57.524Z,68.70
2018-03-26T08:17:30.776Z,68.20
2018-03-26T08:20:04.005Z,68.60
2018-03-26T08:22:36.401Z,68.60
2018-03-26T08:25:09.005Z,67.90
2018-03-26T08:27:41.551Z,66.70
2018-03-26T08:30:14.145Z,66.20
2018-03-26T08:32:46.695Z,65.50
2018-03-26T08:35:19.248Z,65.10
2018-03-26T08:37:51.724Z,64.90
2018-03-26T08:40:25.019Z,65.30
2018-03-26T08:42:58.310Z,64.70
2018-03-26T08:45:32.119Z,65.20
2018-03-26T08:48:04.865Z,65.10
2018-03-26T08:50:38.309Z,63.50
2018-03-26T08:53:11.045Z,63.50
2018-03-26T08:55:44.240Z,63.30
2018-03-26T08:58:16.715Z,64.60
2018-03-26T09:00:49.073Z,64.40
2018-03-26T09:03:21.689Z,63.10
2018-03-26T09:05:54.185Z,62.20
2018-03-26T09:08:26.484Z,62.70
2018-03-26T09:11:00.205Z,62.20
2018-03-26T09:13:33.456Z,63.30
2018-03-26T09:16:05.880Z,63.30
2018-03-26T09:18:38.307Z,64.00
2018-03-26T09:21:10.965Z,64.30
2018-03-26T09:23:43.315Z,63.80
2018-03-26T09:26:15.890Z,63.10
2018-03-26T09:28:48.415Z,60.50
2018-03-26T09:31:21.269Z,60.40
2018-03-26T09:33:53.856Z,59.30
2018-03-26T09:36:26.469Z,57.80
2018-03-26T09:38:58.956Z,57.20
2018-03-26T09:41:31.541Z,57.50
2018-03-26T09:44:04.810Z,56.70
2018-03-26T09:46:37.345Z,56.70
2018-03-26T09:49:10.033Z,56.60
2018-03-26T09:51:42.511Z,56.70
2018-03-26T09:54:15.013Z,53.30
2018-03-26T09:56:48.224Z,54.80
2018-03-26T09:59:20.704Z,54.80
2018-03-26T10:01:56.738Z,50.80
2018-03-26T10:04:30.045Z,50.50
2018-03-26T10:07:02.915Z,50.50
2018-03-26T10:09:35.489Z,50.90
2018-03-26T10:12:09.676Z,49.60
2018-03-26T10:14:42.445Z,49.60
2018-03-26T10:17:14.857Z,50.60
2018-03-26T10:19:48.167Z,47.70
2018-03-26T10:22:20.618Z,47.70
2018-03-26T10:24:53.942Z,43.40
2018-03-26T10:27:26.686Z,43.40
2018-03-26T10:29:59.281Z,44.70
2018-03-26T10:32:31.839Z,46.00
2018-03-26T10:35:04.606Z,45.90
2018-03-26T10:37:37.091Z,45.90
2018-03-26T10:40:09.749Z,45.60
2018-03-26T10:42:42.192Z,45.60
2018-03-26T10:45:14.914Z,46.50
2018-03-26T10:47:47.321Z,47.50
2018-03-26T10:50:20.509Z,45.30
2018-03-26T10:52:52.914Z,45.20
2018-03-26T10:55:25.439Z,45.60
2018-03-26T10:57:57.839Z,46.00
2018-03-26T11:00:31.056Z,45.50
2018-03-26T11:03:04.349Z,46.40
2018-03-26T11:05:37.279Z,46.40
2018-03-26T11:08:10.470Z,45.90
2018-03-26T11:10:43.694Z,45.50
2018-03-26T11:13:16.201Z,45.50
2018-03-26T11:15:48.930Z,44.70
2018-03-26T11:18:21.365Z,43.80
2018-03-26T11:20:54.681Z,43.30
2018-03-26T11:23:27.444Z,43.30
2018-03-26T11:25:59.944Z,45.20
2018-03-26T11:28:33.290Z,42.20
2018-03-26T11:31:06.937Z,40.60
2018-03-26T11:33:39.405Z,40.60
2018-03-26T11:36:12.893Z,42.50
2018-03-26T11:38:45.253Z,42.50
2018-03-26T11:41:17.872Z,42.80
2018-03-26T11:43:50.264Z,43.20
2018-03-26T11:46:23.415Z,43.10
2018-03-26T11:48:56.166Z,43.10
2018-03-26T11:51:28.695Z,41.20
2018-03-26T11:54:02.030Z,41.70
2018-03-26T11:56:34.531Z,41.70
2018-03-26T11:59:07.069Z,40.90
2018-03-26T12:01:39.630Z,41.60
2018-03-26T12:04:12.377Z,40.70
2018-03-26T12:06:44.649Z,42.20
2018-03-26T12:09:17.150Z,41.80
2018-03-26T12:11:49.680Z,41.40
2018-03-26T12:14:22.320Z,41.80
2018-03-26T12:16:54.989Z,41.40
2018-03-26T12:19:27.449Z,42.30
2018-03-26T12:22:00.194Z,41.70
2018-03-26T12:24:45.080Z,41.70
2018-03-26T12:27:17.567Z,41.50
2018-03-26T12:30:02.264Z,41.60
2018-03-26T12:32:34.990Z,39.60
2018-03-26T12:35:19.920Z,40.00
2018-03-26T12:37:52.462Z,38.10
2018-03-26T12:40:37.124Z,40.20
2018-03-26T12:43:09.736Z,36.90
2018-03-26T12:45:55.696Z,33.20
2018-03-26T12:48:29.040Z,31.80
2018-03-26T12:51:13.897Z,31.80
2018-03-26T12:53:46.605Z,31.70
2018-03-26T12:56:19.194Z,32.20
2018-03-26T12:58:51.585Z,32.00
2018-03-26T13:01:36.661Z,31.30
2018-03-26T13:04:09.200Z,30.10
2018-03-26T13:06:41.607Z,30.90
2018-03-26T13:09:14.024Z,29.80
2018-03-26T13:11:47.226Z,27.60
2018-03-26T13:14:20.661Z,27.70
2018-03-26T13:16:53.949Z,28.30
2018-03-26T13:19:26.586Z,28.20
2018-03-26T13:21:59.215Z,28.80
2018-03-26T13:24:31.889Z,29.80
2018-03-26T13:27:05.201Z,28.70
2018-03-26T13:29:37.701Z,29.30
2018-03-26T13:32:10.372Z,29.10
2018-03-26T13:34:42.851Z,28.90
2018-03-26T13:37:15.286Z,26.50
2018-03-26T13:39:47.825Z,26.20
2018-03-26T13:42:21.889Z,24.60
2018-03-26T13:44:54.595Z,24.60
2018-03-26T13:47:27.302Z,24.90
2018-03-26T13:49:59.730Z,25.90
2018-03-26T13:52:32.071Z,25.80
2018-03-26T13:55:05.682Z,25.80
2018-03-26T13:57:38.220Z,25.60
2018-03-26T14:00:10.731Z,24.40
2018-03-26T14:02:43.346Z,25.60
2018-03-26T14:05:15.777Z,26.70
2018-03-26T14:07:48.566Z,25.50
2018-03-26T14:10:33.429Z,26.60
2018-03-26T14:13:30.010Z,29.30
2018-03-26T14:16:14.547Z,28.10
2018-03-26T14:18:47.140Z,28.90
2018-03-26T14:21:19.688Z,29.50
2018-03-26T14:23:52.254Z,27.80
2018-03-26T14:26:24.934Z,27.90
2018-03-26T14:28:57.507Z,29.20
2018-03-26T14:31:31.409Z,28.60
2018-03-26T14:34:04.697Z,28.80
2018-03-26T14:36:37.394Z,28.80
2018-03-26T14:39:09.925Z,27.30
2018-03-26T14:41:43.857Z,28.40
2018-03-26T14:44:16.240Z,28.40
2018-03-26T14:46:48.935Z,29.00
2018-03-26T14:49:21.535Z,29.70
2018-03-26T14:51:53.936Z,29.70
2018-03-26T14:54:27.461Z,29.70
2018-03-26T14:56:59.932Z,30.00
2018-03-26T14:59:32.531Z,30.50
2018-03-26T15:02:06.052Z,29.10
2018-03-26T15:04:39.483Z,28.50
2018-03-26T15:07:12.647Z,28.90
2018-03-26T15:09:46.045Z,29.80
2018-03-26T15:12:18.573Z,30.20
2018-03-26T15:14:51.166Z,29.00
2018-03-26T15:17:23.755Z,29.60
2018-03-26T15:19:56.251Z,29.80
2018-03-26T15:22:28.922Z,29.80
2018-03-26T15:25:01.580Z,30.20
2018-03-26T15:27:34.896Z,31.60
2018-03-26T15:30:09.494Z,32.20
2018-03-26T15:32:41.978Z,31.80
2018-03-26T15:35:15.020Z,30.60
2018-03-26T15:37:48.070Z,30.90
2018-03-26T15:40:20.707Z,31.60
2018-03-26T15:42:53.231Z,32.00
2018-03-26T15:45:26.177Z,32.80
2018-03-26T15:47:58.722Z,33.60
2018-03-26T15:50:31.464Z,33.20
2018-03-26T15:53:03.951Z,33.20
2018-03-26T15:55:37.621Z,33.60
2018-03-26T15:58:11.747Z,32.60
2018-03-26T16:00:45.141Z,30.70
2018-03-26T16:03:23.786Z,30.70
2018-03-26T16:05:56.345Z,29.70
2018-03-26T16:08:29.096Z,30.60
2018-03-26T16:11:01.468Z,30.60
2018-03-26T16:16:13.294Z,29.60
2018-03-26T16:18:45.745Z,29.50
2018-03-26T16:21:18.605Z,28.10
2018-03-26T16:23:51.242Z,27.50
2018-03-26T16:26:24.032Z,27.00
2018-03-26T16:28:56.941Z,27.20
2018-03-26T16:31:29.640Z,27.30
2018-03-26T16:34:02.482Z,27.00
2018-03-26T16:36:35.850Z,27.00
2018-03-26T16:39:08.490Z,27.00
2018-03-26T16:41:47.459Z,27.70
2018-03-26T16:44:20.041Z,28.70
2018-03-26T16:46:53.248Z,29.40
2018-03-26T16:49:25.800Z,30.60
2018-03-26T16:51:58.269Z,32.70
2018-03-26T16:54:31.466Z,35.00
2018-03-26T16:57:04.655Z,37.80
2018-03-26T16:59:37.275Z,37.20
2018-03-26T17:02:09.745Z,42.90
2018-03-26T17:04:42.825Z,47.00
2018-03-26T17:07:16.307Z,50.40
2018-03-26T17:09:48.912Z,50.30
2018-03-26T17:12:21.469Z,51.80
2018-03-26T17:14:47.884Z,53.90
2018-03-26T17:17:14.232Z,55.20
2018-03-26T17:19:40.770Z,56.10
2018-03-26T17:22:07.279Z,56.90
2018-03-26T17:24:41.077Z,57.70
2018-03-26T17:27:07.477Z,58.10
2018-03-26T17:29:34.815Z,59.50
2018-03-26T17:32:02.061Z,59.90
2018-03-26T17:34:29.375Z,59.80
2018-03-26T17:36:55.738Z,60.00
2018-03-26T17:39:23.638Z,60.90
2018-03-26T17:41:50.786Z,61.80
2018-03-26T17:44:17.881Z,61.80
2018-03-26T17:46:44.209Z,61.70
2018-03-26T17:49:10.634Z,62.10
2018-03-26T17:51:36.986Z,62.80
2018-03-26T17:54:03.506Z,63.50
2018-03-26T17:56:30.006Z,63.70
2018-03-26T17:58:57.440Z,64.40
2018-03-26T18:01:23.839Z,64.40
2018-03-26T18:03:50.268Z,64.80
2018-03-26T18:06:17.472Z,64.80
2018-03-26T18:08:44.813Z,65.50
2018-03-26T18:11:11.345Z,65.50
2018-03-26T18:13:38.916Z,65.70
2018-03-26T18:16:06.037Z,66.30
2018-03-26T18:18:32.548Z,66.30
2018-03-26T18:20:59.008Z,66.60
2018-03-26T18:23:26.682Z,67.30
2018-03-26T18:25:53.860Z,67.70
2018-03-26T18:28:21.287Z,67.50
2018-03-26T18:30:47.902Z,67.40
2018-03-26T18:33:14.397Z,67.90
2018-03-26T18:35:41.087Z,68.00
2018-03-26T18:38:07.631Z,68.00
2018-03-26T18:40:34.500Z,68.50
2018-03-26T18:43:01.708Z,68.90
2018-03-26T18:45:28.353Z,68.90
2018-03-26T18:47:56.293Z,69.00
2018-03-26T18:50:22.891Z,69.50
2018-03-26T18:52:50.091Z,70.20
2018-03-26T18:55:16.516Z,70.00
2018-03-26T18:57:43.398Z,70.40
2018-03-26T19:00:09.869Z,70.90
2018-03-26T19:02:36.325Z,70.90
2018-03-26T19:05:02.877Z,70.90
2018-03-26T19:07:29.407Z,71.00
2018-03-26T19:09:56.551Z,71.10
2018-03-26T19:12:23.375Z,71.50
2018-03-26T19:14:50.187Z,71.80
2018-03-26T19:17:17.326Z,72.40
2018-03-26T19:19:43.879Z,72.30
2018-03-26T19:22:10.373Z,72.70
2018-03-26T19:24:36.878Z,73.10
2018-03-26T19:27:03.451Z,73.30
2018-03-26T19:29:29.958Z,73.50
2018-03-26T19:31:57.082Z,73.40
2018-03-26T19:34:23.509Z,73.40
2018-03-26T19:36:50.180Z,73.40
2018-03-26T19:39:16.593Z,73.30
2018-03-26T19:41:43.014Z,73.30
2018-03-26T19:44:09.678Z,73.70
2018-03-26T19:46:36.191Z,73.80
2018-03-26T19:49:03.526Z,73.90
2018-03-26T19:51:30.739Z,74.00
2018-03-26T19:53:57.128Z,74.00
2018-03-26T19:56:23.533Z,74.40
2018-03-26T19:58:49.944Z,74.70
2018-03-26T20:01:16.398Z,75.00
2018-03-26T20:03:42.932Z,75.20
2018-03-26T20:06:09.577Z,75.40
2018-03-26T20:08:36.756Z,75.80
2018-03-26T20:11:03.287Z,75.80
2018-03-26T20:13:30.422Z,76.40
2018-03-26T20:15:57.512Z,76.30
2018-03-26T20:18:23.875Z,76.30
2018-03-26T20:20:57.177Z,76.20
2018-03-26T20:23:30.640Z,76.60
2018-03-26T20:26:04.052Z,76.20
2018-03-26T20:28:36.989Z,76.20
2018-03-26T20:31:09.703Z,76.20
2018-03-26T20:33:42.489Z,76.40
2018-03-26T20:36:15.025Z,76.50
2018-03-26T20:38:47.736Z,76.80
2018-03-26T20:41:20.523Z,77.10
2018-03-26T20:43:53.111Z,77.30
2018-03-26T20:46:25.916Z,77.50
2018-03-26T20:48:58.775Z,77.60
2018-03-26T20:51:31.303Z,77.50
2018-03-26T20:54:04.906Z,77.40
2018-03-26T20:56:38.197Z,77.30
2018-03-26T20:59:10.963Z,77.30
2018-03-26T21:01:44.559Z,76.60
2018-03-26T21:04:17.939Z,77.40
2018-03-26T21:06:50.756Z,77.40
2018-03-26T21:09:24.139Z,78.00
2018-03-26T21:11:56.562Z,77.90
2018-03-26T21:14:29.135Z,78.30
2018-03-26T21:17:01.787Z,78.40
2018-03-26T21:19:34.949Z,79.10
2018-03-26T21:22:07.613Z,78.30
2018-03-26T21:24:40.329Z,78.30
2018-03-26T21:27:12.732Z,78.20
2018-03-26T21:29:45.187Z,78.40
2018-03-26T21:32:17.967Z,78.60
2018-03-26T21:34:50.449Z,78.60
2018-03-26T21:37:23.795Z,78.40
2018-03-26T21:39:56.363Z,78.40
2018-03-26T21:42:29.220Z,78.40
2018-03-26T21:45:02.765Z,78.20
2018-03-26T21:47:35.196Z,78.00
2018-03-26T21:50:07.959Z,78.30
2018-03-26T21:52:40.473Z,78.20
2018-03-26T21:55:13.141Z,78.10
2018-03-26T21:57:45.960Z,78.30
2018-03-26T22:00:20.294Z,78.40
2018-03-26T22:02:53.740Z,78.50
2018-03-26T22:05:26.106Z,78.50
2018-03-26T22:07:58.515Z,78.60
2018-03-26T22:10:31.275Z,78.60
2018-03-26T22:13:04.476Z,78.80
2018-03-26T22:15:37.074Z,78.50
2018-03-26T22:18:09.802Z,78.60
2018-03-26T22:20:42.283Z,78.40
2018-03-26T22:23:14.847Z,78.20
2018-03-26T22:25:48.136Z,78.00
2018-03-26T22:28:20.539Z,77.90
2018-03-26T22:30:53.119Z,78.10
2018-03-26T22:33:25.518Z,77.90
2018-03-26T22:35:58.677Z,78.30
2018-03-26T22:38:30.961Z,78.30
2018-03-26T22:41:03.432Z,78.20
2018-03-26T22:43:35.950Z,78.10
2018-03-26T22:46:08.435Z,78.00
2018-03-26T22:48:40.827Z,77.40
2018-03-26T22:51:14.097Z,77.50
2018-03-26T22:53:47.452Z,76.80
2018-03-26T22:56:20.686Z,77.00
2018-03-26T22:58:53.193Z,77.00
2018-03-26T23:01:25.822Z,77.00
2018-03-26T23:03:59.189Z,76.90
2018-03-26T23:06:33.143Z,76.80
2018-03-26T23:09:06.093Z,76.80
2018-03-26T23:11:38.739Z,77.20
2018-03-26T23:14:11.433Z,77.60
2018-03-26T23:16:45.422Z,78.00
2018-03-26T23:19:18.810Z,77.80
2018-03-26T23:21:52.066Z,78.40
2018-03-26T23:24:25.207Z,77.50
2018-03-26T23:26:57.811Z,78.00
2018-03-26T23:29:30.523Z,78.00
2018-03-26T23:32:03.232Z,78.20
2018-03-26T23:34:35.689Z,78.30
2018-03-26T23:37:08.830Z,78.10
2018-03-26T23:39:42.018Z,78.00
2018-03-26T23:42:14.581Z,77.90
2018-03-26T23:44:47.133Z,77.50
2018-03-26T23:47:19.553Z,77.70
2018-03-26T23:49:52.729Z,77.80
2018-03-26T23:52:25.921Z,77.80
2018-03-26T23:54:59.193Z,77.60
2018-03-26T23:57:31.837Z,77.60
